Česky Dansk Deutsch English Español Suomi Français Magyar Italiano Nederlands norsk Polski Português svenska Türkçe

 

Het Weer

Sua-Pan (Botswana)

15:00, 17 april 2016 (GMT)

NWNNE
WE
SWSSE
Home            
Sua-Pan Letlhakane Francistown Hwange National Park Selebi Phikwe Victoria Falls Maun Bulawayo Airport Livingstone Kasane Binga Katima Mulilo Sesheke Gokwe Ellisras Seretse Khama International Airport Gweru Choma Beitbridge Ghanzi Jwaneng Shakawe Masvingo

Om een weerknop op uw website of weblog te plaatsen, copieer onderstaande code en plak die in uw pagina. In het eerste vakje staat HTML-code, in het tweede vakje UBB-code.


Add to Google

Details

Wind speed:4 bf, 11 kn, 5.7 m/s, 12.7 miles/h, 20.4 km/h
Wind direction:E, 090°
Visibility:Greater than 10000 m, 10 km, 32800 ft, 6.2 miles
Clouds:CAVOC
Temperature:31°C, 88°F
Gefühlte Temperatur:31°C, 87°F
Dew-point:15°C, 59°F
Atmospheric pressure:1020 hPa, 765.1 mmHg, 30.12 inHg, 1.007 atm
Relative humidity:38.0 %
METAR:FBSN 171500Z 09011KT CAVOK 31/15 Q1020

Snelkoppelingen

Actuele weersinformatie van de hele wereld. Voeg locaties toe met het plus (+) symbool. Deze snelkoppelingen kunnen worden toegevoegd aan Google.

Lid van de Technetium groep

website free tracking
StatCounter NetStat W3C Validator

21-10-2020 11:51:52
astro.technetium.be money.technetium.be phote.technetium.be tafeltennistafel.technetium.be www.ligfiets.net